Time;durP1;ratioP1;P1;durP2;ratioP2;P2;SDS_P1;SDS_P2;PMS_P1;PMS_P2;Temp;Humidity;BMP_temperature;BMP_pressure;BME280_temperature;BME280_humidity;BME280_pressure;Samples;Min_cycle;Max_cycle;Signal;HPM_P1;HPM_P2
2022/05/03 00:00:06;;;;;;;14.50;10.00;;;10.70;99.90;;;;;;5077105;28;20512;-67
2022/05/03 00:02:56;;;;;;;13.23;10.27;;;10.80;99.90;;;;;;5077156;28;20207;-67
2022/05/03 00:05:38;;;;;;;14.43;9.90;;;10.70;99.90;;;;;;5076724;28;20196;-67
2022/05/03 00:08:40;;;;;;;15.57;10.73;;;10.80;99.90;;;;;;5076670;28;20173;-67
2022/05/03 00:11:27;;;;;;;14.47;10.13;;;10.70;99.90;;;;;;5076151;28;20699;-67
2022/05/03 00:14:20;;;;;;;13.67;10.13;;;10.70;99.90;;;;;;5076911;28;20640;-67
2022/05/03 00:16:49;;;;;;;13.73;10.17;;;10.70;99.90;;;;;;5075037;28;20578;-69
2022/05/03 00:19:15;;;;;;;17.67;10.83;;;10.70;99.90;;;;;;5076583;28;20177;-67
2022/05/03 00:21:41;;;;;;;14.40;10.23;;;10.60;99.90;;;;;;5076495;28;20543;-67
2022/05/03 00:24:07;;;;;;;13.30;10.30;;;10.50;99.90;;;;;;5075676;28;20274;-67
2022/05/03 00:26:35;;;;;;;16.17;10.80;;;10.40;99.90;;;;;;5074758;28;20547;-67
2022/05/03 00:29:01;;;;;;;14.87;10.40;;;10.40;99.90;;;;;;5076214;28;20257;-67
2022/05/03 00:31:28;;;;;;;15.47;10.67;;;10.40;99.90;;;;;;5074897;28;20181;-67
2022/05/03 00:33:55;;;;;;;13.87;10.23;;;10.30;99.90;;;;;;5074858;28;20221;-67
2022/05/03 00:36:22;;;;;;;14.37;10.07;;;10.20;99.90;;;;;;5076270;28;20202;-66
2022/05/03 00:38:48;;;;;;;17.47;10.53;;;10.20;99.90;;;;;;5075988;28;20217;-67
2022/05/03 00:41:43;;;;;;;13.40;10.00;;;10.20;99.90;;;;;;5075740;28;20178;-66
2022/05/03 00:44:55;;;;;;;15.03;9.63;;;10.10;99.90;;;;;;5075445;28;20232;-67
2022/05/03 00:47:41;;;;;;;14.53;10.07;;;10.10;99.90;;;;;;5074542;28;20231;-67
2022/05/03 00:50:09;;;;;;;14.57;10.07;;;10.10;99.90;;;;;;5075894;28;20173;-67
2022/05/03 00:52:54;;;;;;;15.07;10.60;;;10.00;99.90;;;;;;5074639;28;20170;-67
2022/05/03 00:55:51;;;;;;;13.83;9.90;;;9.90;99.90;;;;;;5075526;28;20283;-68
2022/05/03 00:58:48;;;;;;;14.50;10.63;;;9.80;99.90;;;;;;5075566;28;20165;-67
2022/05/03 01:01:34;;;;;;;16.57;10.20;;;9.80;99.90;;;;;;5075498;28;20215;-67
2022/05/03 01:04:19;;;;;;;16.73;10.97;;;9.80;99.90;;;;;;5075677;28;20190;-67
2022/05/03 01:06:53;;;;;;;12.57;9.53;;;9.80;99.90;;;;;;5075766;28;20196;-67
2022/05/03 01:09:29;;;;;;;16.07;10.37;;;9.70;99.90;;;;;;5075434;28;20178;-66
2022/05/03 01:12:12;;;;;;;13.73;10.17;;;9.60;99.90;;;;;;5075293;28;20189;-67
2022/05/03 01:14:41;;;;;;;14.70;10.60;;;9.50;99.90;;;;;;5075337;28;20197;-67
2022/05/03 01:17:32;;;;;;;15.10;10.37;;;9.40;99.90;;;;;;5075310;28;20205;-67
2022/05/03 01:20:06;;;;;;;13.30;10.00;;;9.30;99.90;;;;;;5064637;28;20588;-67
2022/05/03 01:23:19;;;;;;;13.70;9.50;;;9.30;99.90;;;;;;5073837;28;20217;-66
2022/05/03 01:26:08;;;;;;;14.23;10.47;;;9.00;99.90;;;;;;5074058;28;20194;-67
2022/05/03 01:29:08;;;;;;;16.10;10.83;;;9.00;99.90;;;;;;5074934;28;20177;-68
2022/05/03 01:31:35;;;;;;;13.07;10.73;;;8.90;99.90;;;;;;5074905;28;20184;-67
2022/05/03 01:34:02;;;;;;;16.00;12.40;;;8.80;99.90;;;;;;5074619;28;20203;-67
2022/05/03 01:36:39;;;;;;;16.20;12.37;;;8.90;99.90;;;;;;5073977;28;20679;-67
2022/05/03 01:39:44;;;;;;;16.03;12.20;;;8.80;99.90;;;;;;5074756;28;20581;-67
2022/05/03 01:42:17;;;;;;;14.57;11.77;;;8.80;99.90;;;;;;5074480;28;20166;-67
2022/05/03 01:44:52;;;;;;;14.47;11.10;;;8.80;99.90;;;;;;5074784;28;20292;-67
2022/05/03 01:47:18;;;;;;;15.37;11.23;;;8.90;99.90;;;;;;5075225;28;20586;-67
2022/05/03 01:52:49;;;;;;;17.33;11.93;;;8.90;99.90;;;;;;5074929;28;20165;-67
2022/05/03 01:55:52;;;;;;;15.43;11.10;;;8.80;99.90;;;;;;5074563;28;20197;-67
2022/05/03 01:58:32;;;;;;;15.53;10.93;;;8.80;99.90;;;;;;5074419;28;20631;-67
2022/05/03 02:01:00;;;;;;;14.70;10.97;;;8.80;99.90;;;;;;5074406;28;20158;-67
2022/05/03 02:03:39;;;;;;;15.73;11.63;;;8.80;99.90;;;;;;5074643;28;20522;-68
2022/05/03 02:06:10;;;;;;;15.73;11.10;;;8.80;99.90;;;;;;5074379;28;20186;-67
2022/05/03 02:08:55;;;;;;;17.17;11.70;;;8.70;99.90;;;;;;5074207;28;20177;-68
2022/05/03 02:11:58;;;;;;;16.77;11.53;;;8.80;99.90;;;;;;5073967;28;20196;-67
2022/05/03 02:15:02;;;;;;;14.00;11.30;;;8.70;99.90;;;;;;5074028;28;20193;-68
2022/05/03 02:17:51;;;;;;;15.27;11.33;;;8.50;99.90;;;;;;5074029;28;20189;-68
2022/05/03 02:20:48;;;;;;;20.00;12.30;;;8.30;99.90;;;;;;5074223;28;20176;-67
2022/05/03 02:23:32;;;;;;;15.53;11.70;;;8.30;99.90;;;;;;5074183;28;20253;-67
2022/05/03 02:26:19;;;;;;;16.77;11.07;;;8.30;99.90;;;;;;5073679;28;20209;-68
2022/05/03 02:28:51;;;;;;;15.33;11.10;;;8.30;99.90;;;;;;5073899;28;20166;-68
2022/05/03 02:31:38;;;;;;;16.87;10.83;;;8.30;99.90;;;;;;5074184;28;20178;-68
2022/05/03 02:34:08;;;;;;;15.23;10.17;;;8.40;99.90;;;;;;5074184;28;20593;-67
2022/05/03 02:36:56;;;;;;;12.97;10.17;;;8.40;99.90;;;;;;5072606;28;20202;-69
2022/05/03 02:39:28;;;;;;;13.97;10.77;;;8.40;99.90;;;;;;5072458;28;20656;-67
2022/05/03 02:41:58;;;;;;;14.97;9.73;;;8.30;99.90;;;;;;5072267;28;20531;-67
2022/05/03 02:44:28;;;;;;;13.87;10.10;;;8.20;99.90;;;;;;5072511;28;20251;-69
2022/05/03 02:47:02;;;;;;;13.50;9.90;;;8.30;99.90;;;;;;5072280;28;20177;-69
2022/05/03 02:49:46;;;;;;;18.03;11.37;;;8.00;99.90;;;;;;5072499;28;20173;-69
2022/05/03 02:52:20;;;;;;;18.50;11.60;;;7.80;99.90;;;;;;5072379;28;20262;-69
2022/05/03 02:55:17;;;;;;;15.70;11.83;;;7.60;99.90;;;;;;5073704;28;20242;-69
2022/05/03 02:58:04;;;;;;;17.27;12.53;;;7.40;99.90;;;;;;5073349;28;20166;-69
2022/05/03 03:03:42;;;;;;;17.87;12.37;;;7.20;99.90;;;;;;5073653;28;20576;-68
2022/05/03 03:06:19;;;;;;;20.00;13.23;;;7.30;99.90;;;;;;5074104;28;20551;-68
2022/05/03 03:08:45;;;;;;;19.43;13.40;;;7.50;99.90;;;;;;5072330;28;20246;-68
2022/05/03 03:11:22;;;;;;;22.73;13.43;;;7.70;99.90;;;;;;5072049;28;20205;-68
2022/05/03 03:14:10;;;;;;;15.67;12.00;;;7.80;99.90;;;;;;5073841;28;20531;-69
2022/05/03 03:16:52;;;;;;;18.07;13.23;;;7.90;99.90;;;;;;5072507;28;20193;-69
2022/05/03 03:19:55;;;;;;;14.37;11.80;;;7.90;99.90;;;;;;5073638;28;20158;-68
2022/05/03 03:22:22;;;;;;;17.93;12.80;;;8.10;99.90;;;;;;5072383;28;20665;-69
2022/05/03 03:24:50;;;;;;;18.40;11.93;;;8.10;99.90;;;;;;5073727;28;20194;-69
2022/05/03 03:27:21;;;;;;;17.63;11.87;;;8.20;99.90;;;;;;5073439;28;20256;-69
2022/05/03 03:29:48;;;;;;;14.50;10.47;;;8.20;99.90;;;;;;5072349;28;20552;-69
2022/05/03 03:32:17;;;;;;;13.67;10.37;;;8.10;99.90;;;;;;5073551;28;20224;-69
2022/05/03 03:34:47;;;;;;;15.73;10.57;;;8.10;99.90;;;;;;5072214;28;20197;-69
2022/05/03 03:37:16;;;;;;;15.40;11.40;;;7.90;99.90;;;;;;5072819;28;20243;-68
2022/05/03 03:39:41;;;;;;;14.20;11.10;;;7.80;99.90;;;;;;5072144;28;20186;-69
2022/05/03 03:42:07;;;;;;;12.50;10.23;;;7.80;99.90;;;;;;5073307;28;20199;-68
2022/05/03 03:44:33;;;;;;;16.50;10.57;;;7.80;99.90;;;;;;5073281;28;20190;-69
2022/05/03 03:47:01;;;;;;;15.10;10.33;;;7.70;99.90;;;;;;5072680;28;20185;-69
2022/05/03 03:49:29;;;;;;;14.07;10.30;;;7.80;99.90;;;;;;5073764;28;20166;-69
2022/05/03 03:51:55;;;;;;;15.87;11.10;;;7.70;99.90;;;;;;5071973;28;20626;-69
2022/05/03 03:54:21;;;;;;;14.50;10.63;;;7.70;99.90;;;;;;5073576;28;20231;-68
2022/05/03 03:56:49;;;;;;;16.03;11.23;;;7.50;99.90;;;;;;5073258;28;20194;-67
2022/05/03 03:59:15;;;;;;;15.67;11.03;;;7.50;99.90;;;;;;5075526;28;20166;-67
2022/05/03 04:01:41;;;;;;;14.40;11.30;;;7.30;99.90;;;;;;5077392;28;20633;-67
2022/05/03 04:04:08;;;;;;;16.03;11.60;;;7.30;99.90;;;;;;5077421;28;20235;-67
2022/05/03 04:06:35;;;;;;;17.00;12.20;;;7.30;99.90;;;;;;5078715;28;20170;-68
2022/05/03 04:09:01;;;;;;;16.70;12.33;;;7.30;99.90;;;;;;5084398;28;20189;-69
2022/05/03 04:11:27;;;;;;;16.13;12.50;;;7.40;99.90;;;;;;5078844;28;20565;-68
2022/05/03 04:13:53;;;;;;;15.60;11.87;;;7.20;99.90;;;;;;5078563;28;20276;-68
2022/05/03 04:16:19;;;;;;;16.93;13.30;;;7.20;99.90;;;;;;5077273;28;20326;-68
2022/05/03 04:18:45;;;;;;;17.63;12.53;;;7.20;99.90;;;;;;5076796;28;20176;-69
2022/05/03 04:21:18;;;;;;;17.77;12.80;;;7.30;99.90;;;;;;5076728;28;20597;-68
2022/05/03 04:23:45;;;;;;;15.80;11.97;;;7.40;99.90;;;;;;5075186;28;20193;-68
2022/05/03 04:26:12;;;;;;;18.17;12.53;;;7.40;99.90;;;;;;5076418;28;20198;-68
2022/05/03 04:28:38;;;;;;;18.83;13.90;;;7.40;99.90;;;;;;5076780;28;20196;-68
2022/05/03 04:31:05;;;;;;;17.40;13.33;;;7.20;99.90;;;;;;5077043;28;20525;-69
2022/05/03 04:33:31;;;;;;;19.20;13.80;;;7.10;99.90;;;;;;5076605;28;20178;-69
2022/05/03 04:35:57;;;;;;;15.97;13.20;;;7.00;99.90;;;;;;5075053;28;20208;-69
2022/05/03 04:38:23;;;;;;;16.73;13.27;;;7.00;99.90;;;;;;5076660;28;20178;-69
2022/05/03 04:40:49;;;;;;;20.00;14.40;;;6.90;99.90;;;;;;5074949;28;20174;-69
2022/05/03 04:43:15;;;;;;;20.00;14.37;;;7.00;99.90;;;;;;5075890;28;20235;-70
2022/05/03 04:45:42;;;;;;;20.70;15.27;;;7.10;99.90;;;;;;5076710;28;20750;-67
2022/05/03 04:48:08;;;;;;;22.13;15.67;;;7.10;99.90;;;;;;5076263;28;20174;-68
2022/05/03 04:50:35;;;;;;;21.77;16.30;;;7.20;99.90;;;;;;5075963;28;20266;-67
2022/05/03 04:53:01;;;;;;;24.57;17.77;;;7.20;99.90;;;;;;5076012;28;20188;-68
2022/05/03 04:55:27;;;;;;;21.40;15.43;;;7.30;99.90;;;;;;5075435;28;20674;-68
2022/05/03 04:57:55;;;;;;;22.07;16.67;;;7.40;99.90;;;;;;5074087;28;20201;-68
2022/05/03 05:00:21;;;;;;;20.70;14.40;;;7.50;99.90;;;;;;5074090;28;20178;-67
2022/05/03 05:02:47;;;;;;;18.87;14.57;;;7.60;99.90;;;;;;5075376;28;20247;-68
2022/05/03 05:05:12;;;;;;;24.73;15.20;;;7.60;99.90;;;;;;5075277;28;20186;-67
2022/05/03 05:07:38;;;;;;;22.10;15.30;;;7.60;99.90;;;;;;5075136;28;20178;-68
2022/05/03 05:12:49;;;;;;;19.27;14.10;;;7.70;99.90;;;;;;5075445;28;20714;-67
2022/05/03 05:15:15;;;;;;;20.17;14.43;;;7.80;99.90;;;;;;5075138;28;20194;-67
2022/05/03 05:17:41;;;;;;;19.33;14.57;;;7.90;99.90;;;;;;5075146;28;20261;-68
2022/05/03 05:20:07;;;;;;;17.10;13.90;;;8.00;99.90;;;;;;5075454;28;20169;-67
2022/05/03 05:22:33;;;;;;;18.97;14.37;;;8.00;99.90;;;;;;5075007;28;20178;-68
2022/05/03 05:24:58;;;;;;;20.47;14.50;;;8.00;99.90;;;;;;5073524;28;20613;-68
2022/05/03 05:27:24;;;;;;;22.30;14.33;;;8.00;99.90;;;;;;5074725;28;20174;-68
2022/05/03 05:29:50;;;;;;;22.43;16.37;;;8.00;99.90;;;;;;5073705;28;20181;-68
2022/05/03 05:32:16;;;;;;;22.33;14.93;;;7.90;99.90;;;;;;5075122;28;20608;-67
2022/05/03 05:34:41;;;;;;;20.07;14.67;;;7.80;99.90;;;;;;5075498;28;20198;-68
2022/05/03 05:37:07;;;;;;;20.87;14.93;;;7.90;99.90;;;;;;5073666;28;20405;-68
2022/05/03 05:39:33;;;;;;;19.97;14.27;;;8.00;99.90;;;;;;5073515;28;20638;-68
2022/05/03 05:42:01;;;;;;;18.97;14.13;;;8.10;99.90;;;;;;5074802;28;20622;-68
2022/05/03 05:44:29;;;;;;;19.50;13.17;;;8.20;99.90;;;;;;5075372;28;20197;-67
2022/05/03 05:46:55;;;;;;;15.43;12.57;;;8.30;99.90;;;;;;5075351;28;20174;-67
2022/05/03 05:49:21;;;;;;;16.50;12.63;;;8.50;99.90;;;;;;5074033;28;20592;-68
2022/05/03 05:51:47;;;;;;;18.43;12.47;;;8.70;99.90;;;;;;5073561;28;20277;-67
2022/05/03 05:54:13;;;;;;;15.80;12.33;;;8.70;99.90;;;;;;5075630;28;20233;-68
2022/05/03 05:56:42;;;;;;;18.47;12.90;;;8.80;99.90;;;;;;5074155;28;20228;-68
2022/05/03 05:59:08;;;;;;;16.80;11.90;;;8.90;99.90;;;;;;5073308;28;20241;-68
2022/05/03 06:01:38;;;;;;;16.60;11.37;;;8.90;99.90;;;;;;5074448;28;20623;-68
2022/05/03 06:04:05;;;;;;;14.20;9.73;;;9.00;99.90;;;;;;5073249;28;20194;-68
2022/05/03 06:06:32;;;;;;;12.27;9.23;;;9.20;99.90;;;;;;5074824;28;20173;-68
2022/05/03 06:08:59;;;;;;;13.20;10.47;;;9.30;99.90;;;;;;5073526;28;20559;-68
2022/05/03 06:11:26;;;;;;;10.73;8.70;;;9.50;99.90;;;;;;5074717;28;20185;-68
2022/05/03 06:13:52;;;;;;;12.43;8.83;;;9.60;99.90;;;;;;5074667;28;20243;-68
2022/05/03 06:16:19;;;;;;;12.60;8.87;;;9.80;99.90;;;;;;5074499;28;20289;-68
2022/05/03 06:18:45;;;;;;;13.53;9.50;;;9.90;99.90;;;;;;5074291;28;20216;-68
2022/05/03 06:21:13;;;;;;;13.00;9.87;;;9.90;99.90;;;;;;5073623;28;20208;-68
2022/05/03 06:23:39;;;;;;;15.53;9.93;;;10.00;99.90;;;;;;5072847;28;20608;-68
2022/05/03 06:26:05;;;;;;;14.00;10.10;;;10.00;99.90;;;;;;5074463;28;20178;-68
2022/05/03 06:28:34;;;;;;;12.40;10.13;;;10.20;99.90;;;;;;5072505;28;20192;-68
2022/05/03 06:31:00;;;;;;;13.00;9.73;;;10.30;99.90;;;;;;5074326;28;20699;-68
2022/05/03 06:33:26;;;;;;;12.30;9.17;;;10.40;99.90;;;;;;5072552;28;20269;-68
2022/05/03 06:35:52;;;;;;;13.37;8.23;;;10.40;99.90;;;;;;5072464;28;20216;-68
2022/05/03 06:38:18;;;;;;;14.47;9.83;;;10.50;99.90;;;;;;5072560;28;20200;-68
2022/05/03 06:40:44;;;;;;;14.20;8.83;;;10.60;99.90;;;;;;5073849;28;20170;-68
2022/05/03 06:43:09;;;;;;;12.03;9.00;;;10.70;99.90;;;;;;5073545;28;20231;-68
2022/05/03 06:45:35;;;;;;;13.47;9.57;;;10.70;99.90;;;;;;5072341;28;20248;-68
2022/05/03 06:48:01;;;;;;;12.07;9.03;;;10.80;99.90;;;;;;5073733;28;20634;-68
2022/05/03 06:50:29;;;;;;;12.90;8.83;;;10.90;99.90;;;;;;5072489;28;20174;-68
2022/05/03 06:52:56;;;;;;;14.10;9.17;;;10.90;99.90;;;;;;5072421;28;20668;-68
2022/05/03 06:55:22;;;;;;;11.20;8.53;;;11.00;99.90;;;;;;5072338;28;20197;-68
2022/05/03 06:57:48;;;;;;;10.00;8.10;;;11.10;99.90;;;;;;5073702;28;20173;-68
2022/05/03 07:00:14;;;;;;;10.17;8.60;;;11.10;99.90;;;;;;5072270;28;20181;-68
2022/05/03 07:02:42;;;;;;;10.03;7.13;;;11.20;99.90;;;;;;5072551;28;20185;-68
2022/05/03 07:05:08;;;;;;;10.60;8.13;;;11.40;99.90;;;;;;5073785;28;20197;-68
2022/05/03 07:07:35;;;;;;;8.93;6.97;;;11.50;99.90;;;;;;5072266;28;20224;-68
2022/05/03 07:10:01;;;;;;;7.87;6.60;;;11.60;99.90;;;;;;5074444;28;20181;-69
2022/05/03 07:12:28;;;;;;;11.33;5.63;;;11.70;99.90;;;;;;5072338;28;20201;-68
2022/05/03 07:15:01;;;;;;;11.23;6.70;;;11.80;99.90;;;;;;5073770;28;20197;-68
2022/05/03 07:22:56;;;;;;;11.20;7.57;;;12.10;99.90;;;;;;5074083;28;20249;-68
2022/05/03 07:25:22;;;;;;;10.13;6.37;;;12.20;99.90;;;;;;5072227;28;20229;-68
2022/05/03 07:27:48;;;;;;;8.27;6.27;;;12.20;99.90;;;;;;5073066;28;20180;-68
2022/05/03 07:30:15;;;;;;;9.70;6.70;;;12.30;99.90;;;;;;5072040;28;20178;-68
2022/05/03 07:32:45;;;;;;;8.10;6.23;;;12.50;99.90;;;;;;5073323;28;20591;-68
2022/05/03 07:35:12;;;;;;;9.53;6.80;;;12.60;99.90;;;;;;5075922;28;20686;-68
2022/05/03 07:37:38;;;;;;;9.00;6.93;;;12.60;99.90;;;;;;5077165;28;20197;-68
2022/05/03 07:40:07;;;;;;;11.80;7.57;;;12.60;99.90;;;;;;5077224;28;20230;-68
2022/05/03 07:42:33;;;;;;;10.93;7.23;;;12.70;99.90;;;;;;5075473;28;20184;-68
2022/05/03 07:44:58;;;;;;;8.27;6.80;;;12.90;99.90;;;;;;5075665;28;20202;-68
2022/05/03 07:47:25;;;;;;;7.63;6.10;;;12.90;99.90;;;;;;5076973;28;20182;-68
2022/05/03 07:49:51;;;;;;;10.77;6.88;;;13.10;99.90;;;;;;5075564;28;20185;-68
2022/05/03 07:52:16;;;;;;;11.03;6.87;;;13.10;99.90;;;;;;5075606;28;20673;-68
2022/05/03 07:54:44;;;;;;;7.77;6.13;;;13.20;99.90;;;;;;5076825;28;20241;-68
2022/05/03 07:57:12;;;;;;;8.02;6.38;;;13.20;99.90;;;;;;5075252;28;20212;-68
2022/05/03 07:59:38;;;;;;;8.33;6.80;;;13.30;99.90;;;;;;5076635;28;20178;-68
2022/05/03 08:02:04;;;;;;;9.13;6.43;;;13.30;99.90;;;;;;5076788;28;20548;-68
2022/05/03 08:04:30;;;;;;;9.98;6.25;;;13.20;99.90;;;;;;5075418;28;20729;-68
2022/05/03 08:06:56;;;;;;;9.25;6.35;;;13.20;99.90;;;;;;5076805;28;20205;-68
2022/05/03 08:09:22;;;;;;;8.98;6.15;;;13.10;99.90;;;;;;5077330;28;20190;-68
2022/05/03 08:11:47;;;;;;;7.38;5.85;;;13.20;99.90;;;;;;5076986;28;20201;-68
2022/05/03 08:14:13;;;;;;;8.55;6.30;;;13.20;99.90;;;;;;5076769;28;20194;-69
2022/05/03 08:16:39;;;;;;;6.93;5.85;;;13.30;99.90;;;;;;5076694;28;20251;-71
2022/05/03 08:19:05;;;;;;;7.47;5.75;;;13.40;99.90;;;;;;5076691;28;20174;-68
2022/05/03 08:21:35;;;;;;;7.47;5.68;;;13.40;99.90;;;;;;5076558;28;20166;-68
2022/05/03 08:24:01;;;;;;;7.32;5.78;;;13.60;99.90;;;;;;5076290;28;20239;-68
2022/05/03 08:26:29;;;;;;;10.52;6.05;;;14.20;99.90;;;;;;5076472;28;20257;-69
2022/05/03 08:28:55;;;;;;;9.35;5.50;;;14.90;99.90;;;;;;5076117;28;20650;-68
2022/05/03 08:31:21;;;;;;;8.73;5.90;;;15.60;99.90;;;;;;5076733;28;20169;-68
2022/05/03 08:33:47;;;;;;;9.65;5.30;;;16.20;99.90;;;;;;5076502;28;20284;-68
2022/05/03 08:36:14;;;;;;;8.52;5.68;;;16.00;99.90;;;;;;5076370;28;20193;-68
2022/05/03 08:44:09;;;;;;;6.20;4.72;;;16.30;99.90;;;;;;5075813;28;20200;-68
2022/05/03 08:46:39;;;;;;;6.05;4.65;;;16.30;99.90;;;;;;5076214;28;20220;-68
2022/05/03 08:49:08;;;;;;;6.28;4.50;;;16.10;99.90;;;;;;5075359;28;20201;-68
2022/05/03 08:51:33;;;;;;;6.03;4.63;;;16.40;99.90;;;;;;5075976;28;20184;-68
2022/05/03 08:54:01;;;;;;;5.70;4.78;;;16.20;99.90;;;;;;5074440;28;20198;-68
2022/05/03 08:56:30;;;;;;;6.78;4.53;;;16.10;99.90;;;;;;5075790;28;20208;-68
2022/05/03 08:58:56;;;;;;;6.57;4.65;;;16.20;99.90;;;;;;5075467;28;20170;-68
2022/05/03 09:01:22;;;;;;;6.10;4.50;;;16.40;99.90;;;;;;5075957;28;20201;-68
2022/05/03 09:03:47;;;;;;;8.10;4.70;;;16.30;99.90;;;;;;5074221;28;20196;-68
2022/05/03 09:06:13;;;;;;;6.93;4.05;;;16.20;99.90;;;;;;5075474;28;20178;-68
2022/05/03 09:08:39;;;;;;;5.25;4.20;;;16.30;99.90;;;;;;5075337;28;20190;-68
2022/05/03 09:11:18;;;;;;;5.55;4.20;;;16.30;99.90;;;;;;5075343;28;20194;-68
2022/05/03 09:13:46;;;;;;;5.15;3.03;;;16.50;99.90;;;;;;5075265;28;20206;-68
2022/05/03 09:16:12;;;;;;;3.67;3.10;;;16.60;99.90;;;;;;5074116;28;20201;-68
2022/05/03 09:18:39;;;;;;;4.07;3.28;;;16.90;99.90;;;;;;5074136;28;20695;-68
2022/05/03 09:24:05;;;;;;;3.63;3.28;;;17.10;99.90;;;;;;5075428;28;20189;-68
2022/05/03 09:26:31;;;;;;;4.28;3.28;;;17.20;99.90;;;;;;5075250;28;20182;-69
2022/05/03 09:29:01;;;;;;;5.03;3.50;;;17.20;99.90;;;;;;5075012;28;20159;-68
2022/05/03 09:31:46;;;;;;;3.92;3.45;;;17.50;99.90;;;;;;5073991;28;20174;-69
2022/05/03 09:34:28;;;;;;;5.10;3.50;;;17.60;99.90;;;;;;5073720;28;20742;-69
2022/05/03 09:36:56;;;;;;;5.15;3.25;;;17.90;99.90;;;;;;5075010;28;20194;-68
2022/05/03 09:39:30;;;;;;;4.95;3.00;;;18.10;99.90;;;;;;5074869;28;20181;-69
2022/05/03 09:42:09;;;;;;;5.18;3.50;;;18.30;99.90;;;;;;5073424;28;20534;-69
2022/05/03 09:44:36;;;;;;;4.82;2.95;;;18.40;99.90;;;;;;5074974;28;20227;-69
2022/05/03 09:47:08;;;;;;;3.65;3.22;;;18.40;99.90;;;;;;5074757;28;20178;-68
2022/05/03 09:49:38;;;;;;;3.85;3.25;;;18.40;99.90;;;;;;5075135;28;20186;-69
2022/05/03 09:52:06;;;;;;;3.40;3.10;;;18.40;99.90;;;;;;5073467;28;20172;-69
2022/05/03 09:54:50;;;;;;;4.18;3.05;;;18.40;99.60;;;;;;5073879;28;20690;-69
2022/05/03 09:57:24;;;;;;;2.63;2.42;;;18.40;99.90;;;;;;5073600;28;20292;-69
2022/05/03 09:59:52;;;;;;;2.60;2.40;;;18.30;98.40;;;;;;5075216;28;20200;-69
2022/05/03 10:02:20;;;;;;;2.95;2.63;;;18.40;99.30;;;;;;5073853;28;20173;-68
2022/05/03 10:04:47;;;;;;;2.78;2.45;;;18.30;98.10;;;;;;5073647;28;20230;-69
2022/05/03 10:07:14;;;;;;;3.42;3.10;;;18.40;99.70;;;;;;5074910;28;20184;-69
2022/05/03 10:09:41;;;;;;;3.20;2.90;;;18.50;97.50;;;;;;5073203;28;20238;-69
2022/05/03 10:12:09;;;;;;;2.63;2.42;;;18.30;96.60;;;;;;5074029;28;20190;-69
2022/05/03 10:14:36;;;;;;;3.28;2.83;;;18.30;98.30;;;;;;5074176;28;20731;-69
2022/05/03 10:22:39;;;;;;;5.28;3.08;;;18.20;97.30;;;;;;5074805;28;20168;-69
2022/05/03 10:25:08;;;;;;;3.78;2.90;;;18.20;97.80;;;;;;5073988;28;20543;-69
2022/05/03 10:27:54;;;;;;;5.28;3.08;;;18.40;99.00;;;;;;5072493;28;20201;-69
2022/05/03 10:30:22;;;;;;;4.75;2.55;;;18.30;97.00;;;;;;5074286;28;20154;-68
2022/05/03 10:33:19;;;;;;;5.65;3.60;;;18.50;97.70;;;;;;5074127;28;20181;-68
2022/05/03 10:35:45;;;;;;;4.82;3.35;;;18.60;97.10;;;;;;5072724;28;20176;-68
2022/05/03 10:38:12;;;;;;;3.97;3.00;;;18.50;96.30;;;;;;5072737;28;20185;-69
2022/05/03 10:40:43;;;;;;;4.35;3.40;;;18.20;95.40;;;;;;5076026;28;20597;-69
2022/05/03 10:43:11;;;;;;;3.92;3.38;;;18.20;98.00;;;;;;5073706;28;20169;-69
2022/05/03 10:45:52;;;;;;;3.92;3.38;;;18.30;97.90;;;;;;5072457;28;20194;-69
2022/05/03 10:48:26;;;;;;;7.38;3.60;;;18.40;96.80;;;;;;5072588;28;20277;-69
2022/05/03 10:50:55;;;;;;;4.10;3.58;;;18.50;96.30;;;;;;5074003;28;20241;-69
2022/05/03 10:53:23;;;;;;;3.65;3.35;;;18.70;96.60;;;;;;5073799;28;20657;-69
2022/05/03 10:56:07;;;;;;;6.22;3.72;;;18.50;97.80;;;;;;5073744;28;20260;-69
2022/05/03 10:58:37;;;;;;;3.22;2.92;;;18.80;98.40;;;;;;5072245;28;20163;-69
2022/05/03 11:01:19;;;;;;;6.32;3.40;;;19.20;98.60;;;;;;5073922;28;20517;-69
2022/05/03 11:03:48;;;;;;;5.28;3.38;;;19.40;96.30;;;;;;5073503;28;20193;-69
2022/05/03 11:06:22;;;;;;;3.63;3.33;;;19.60;97.60;;;;;;5072636;28;20182;-69
2022/05/03 11:11:37;;;;;;;5.82;4.38;;;20.10;96.80;;;;;;5073610;28;20193;-69
2022/05/03 11:14:04;;;;;;;5.80;4.10;;;20.30;97.10;;;;;;5073255;28;20205;-69
2022/05/03 11:16:36;;;;;;;4.63;4.13;;;20.30;96.80;;;;;;5073306;28;20655;-69
2022/05/03 11:19:15;;;;;;;13.13;4.78;;;20.20;95.00;;;;;;5072701;28;20188;-69
2022/05/03 11:21:42;;;;;;;5.93;4.35;;;20.40;97.50;;;;;;5073365;28;20657;-69
2022/05/03 11:24:36;;;;;;;5.95;4.43;;;20.40;96.80;;;;;;5073322;28;20205;-69
2022/05/03 11:27:05;;;;;;;6.78;4.13;;;20.20;96.70;;;;;;5073042;28;20188;-69
2022/05/03 11:29:36;;;;;;;5.57;3.90;;;20.30;95.90;;;;;;5073199;28;20193;-69
2022/05/03 11:32:06;;;;;;;6.93;4.85;;;20.60;97.50;;;;;;5073522;28;20315;-69
2022/05/03 11:34:32;;;;;;;5.40;3.92;;;20.60;95.30;;;;;;5073646;28;20193;-69
2022/05/03 11:36:58;;;;;;;7.95;5.25;;;20.90;96.40;;;;;;5074240;28;20607;-69
2022/05/03 11:39:25;;;;;;;8.90;5.55;;;20.80;93.50;;;;;;5072573;28;20178;-69
2022/05/03 11:41:51;;;;;;;10.68;5.75;;;21.00;94.10;;;;;;5072154;28;20622;-69
2022/05/03 11:44:18;;;;;;;6.13;4.70;;;20.70;94.10;;;;;;5072846;28;20240;-69
2022/05/03 11:46:47;;;;;;;6.45;4.65;;;21.00;94.90;;;;;;5073122;28;20181;-69
2022/05/03 11:49:14;;;;;;;6.82;5.28;;;21.20;92.10;;;;;;5071763;28;20178;-69
2022/05/03 11:57:36;;;;;;;7.40;5.75;;;21.20;93.60;;;;;;5072974;28;20200;-69
2022/05/03 12:00:05;;;;;;;7.75;5.47;;;21.00;91.70;;;;;;5073176;28;20170;-68
2022/05/03 12:02:36;;;;;;;10.20;5.47;;;20.80;93.30;;;;;;5073099;28;20178;-69
2022/05/03 12:05:05;;;;;;;7.25;4.95;;;21.10;91.10;;;;;;5072911;28;20190;-69
2022/05/03 12:07:47;;;;;;;7.25;5.30;;;21.20;93.80;;;;;;5072827;28;20261;-69
2022/05/03 12:10:28;;;;;;;6.32;4.68;;;21.50;91.30;;;;;;5072656;28;20173;-69
2022/05/03 12:13:09;;;;;;;6.72;5.25;;;21.70;92.50;;;;;;5072680;28;20169;-69
2022/05/03 12:15:40;;;;;;;6.55;4.53;;;21.90;92.40;;;;;;5073102;28;20205;-69
2022/05/03 12:18:16;;;;;;;7.80;5.10;;;21.80;92.30;;;;;;5073119;28;20615;-69
2022/05/03 12:21:00;;;;;;;6.85;5.05;;;22.00;92.30;;;;;;5076043;28;20149;-69
2022/05/03 12:23:38;;;;;;;8.30;5.63;;;22.40;91.30;;;;;;5076535;28;20615;-69
2022/05/03 12:26:16;;;;;;;8.15;5.20;;;22.50;91.30;;;;;;5076206;28;20626;-69
2022/05/03 12:28:45;;;;;;;6.95;4.70;;;22.80;92.00;;;;;;5074660;28;20529;-67
2022/05/03 12:31:12;;;;;;;6.75;5.30;;;23.20;90.40;;;;;;5076060;28;20180;-69
2022/05/03 12:33:46;;;;;;;7.53;5.45;;;23.00;86.40;;;;;;5076577;28;20198;-69
2022/05/03 12:36:26;;;;;;;7.97;4.88;;;23.30;90.10;;;;;;5075907;28;20565;-69
2022/05/03 12:38:52;;;;;;;5.82;5.22;;;23.80;91.50;;;;;;5075828;28;20177;-69
2022/05/03 12:41:26;;;;;;;7.53;5.55;;;24.30;89.70;;;;;;5075845;28;20208;-70
2022/05/03 12:44:09;;;;;;;9.75;5.90;;;24.50;85.70;;;;;;5075616;28;20536;-68
2022/05/03 12:46:37;;;;;;;9.05;5.75;;;24.40;85.70;;;;;;5074952;28;20166;-69
2022/05/03 12:49:05;;;;;;;8.95;5.32;;;24.00;88.50;;;;;;5074839;28;20178;-69
2022/05/03 12:51:32;;;;;;;7.00;4.90;;;24.20;84.80;;;;;;5076356;28;20664;-68
2022/05/03 12:54:05;;;;;;;6.55;5.40;;;24.30;85.90;;;;;;5077022;28;20681;-67
2022/05/03 12:59:16;;;;;;;5.03;4.47;;;24.00;81.70;;;;;;5075785;28;20169;-68
2022/05/03 13:01:44;;;;;;;6.13;4.85;;;24.20;83.30;;;;;;5076081;28;20581;-68
2022/05/03 13:04:10;;;;;;;12.07;5.85;;;23.80;87.10;;;;;;5075453;28;20190;-68
2022/05/03 13:06:36;;;;;;;6.95;5.25;;;23.30;81.10;;;;;;5076784;28;20185;-70
2022/05/03 13:09:04;;;;;;;6.32;5.30;;;23.30;86.00;;;;;;5075528;28;20181;-70
2022/05/03 13:11:34;;;;;;;7.85;5.68;;;23.30;81.60;;;;;;5075722;28;20235;-72
2022/05/03 13:14:01;;;;;;;7.22;5.40;;;23.20;82.20;;;;;;5073955;28;20296;-70
2022/05/03 13:16:27;;;;;;;6.20;5.22;;;23.40;87.70;;;;;;5075785;28;20216;-71
2022/05/03 13:18:53;;;;;;;7.97;5.70;;;24.00;88.00;;;;;;5075330;28;20166;-70
2022/05/03 13:21:19;;;;;;;7.70;4.97;;;24.40;84.10;;;;;;5075691;28;20169;-71
2022/05/03 13:23:45;;;;;;;9.50;6.90;;;24.90;84.40;;;;;;5075502;28;20201;-71
2022/05/03 13:26:10;;;;;;;8.27;6.28;;;24.50;78.70;;;;;;5075322;28;20162;-71
2022/05/03 13:28:36;;;;;;;10.90;7.00;;;24.30;83.10;;;;;;5073685;28;20197;-70
2022/05/03 13:31:02;;;;;;;8.40;5.70;;;24.00;77.60;;;;;;5074329;28;20534;-70
2022/05/03 13:33:28;;;;;;;9.98;6.13;;;24.00;83.10;;;;;;5075049;28;20174;-70
2022/05/03 13:41:22;;;;;;;10.82;5.80;;;24.30;76.10;;;;;;5075285;28;20162;-70
2022/05/03 13:43:48;;;;;;;9.63;6.63;;;23.80;77.60;;;;;;5074706;28;20185;-70
2022/05/03 13:46:14;;;;;;;6.70;4.88;;;23.10;79.10;;;;;;5075093;28;20614;-71